EST,Max TemperatureF,Mean TemperatureF,Min TemperatureF,Max Dew PointF,MeanDew PointF,Min DewpointF,Max Humidity, Mean Humidity, Min Humidity, Max Sea Level PressureIn, Mean Sea Level PressureIn, Min Sea Level PressureIn, Max VisibilityMiles, Mean VisibilityMiles, Min VisibilityMiles, Max Wind SpeedMPH, Mean Wind SpeedMPH, Max Gust SpeedMPH,PrecipitationIn, CloudCover, Events, WindDirDegrees
2013-11-1,60,52,44,59,45,41,100,91,76,29.63,29.40,29.04,10,8,2,30,18,44,0.00,8,Rain,238
2013-11-2,44,40,35,45,38,32,100,91,70,30.12,29.84,29.63,10,10,5,18,7,25,0.00,7,Rain,357
2013-11-3,44,37,30,34,31,28,100,80,61,30.44,30.31,30.12,10,10,10,10,4,,0.00,4,,95
2013-11-4,48,40,32,32,28,21,93,65,34,30.46,30.37,30.25,10,10,10,20,9,25,0.00,1,,143
2013-11-5,57,50,44,45,40,32,76,66,58,30.31,30.25,30.11,10,10,10,17,9,21,0.00,7,,191
2013-11-6,55,48,39,54,46,34,100,83,58,30.10,29.88,29.71,10,8,3,23,14,33,0.00,7,Rain,215
2013-11-7,41,38,35,34,28,23,87,71,49,30.11,30.06,29.98,10,10,10,18,10,22,0.00,8,,277
2013-11-8,44,37,30,28,26,21,93,68,42,30.25,30.18,30.08,10,10,10,12,8,16,0.00,4,,246
2013-11-9,51,42,33,37,32,27,87,62,49,30.13,29.86,29.74,10,10,10,25,13,34,0.00,7,Rain,215
2013-11-10,46,39,32,32,29,25,87,64,49,30.24,30.08,29.86,10,10,10,24,13,31,0.00,5,,275
2013-11-11,41,34,26,37,28,16,100,76,60,30.32,30.12,30.01,10,8,1,18,10,26,0.00,6,Rain-Snow,280
2013-11-12,33,27,21,21,16,10,86,64,41,30.53,30.48,30.33,10,10,10,21,10,28,0.00,2,,302
2013-11-13,41,31,21,23,18,12,86,58,38,30.51,30.25,30.06,10,10,10,24,13,34,0.00,0,,223
2013-11-14,48,40,32,28,24,19,75,58,43,30.06,29.98,29.90,10,10,10,23,16,32,0.00,0,,223
2013-11-15,50,44,37,32,28,25,70,58,40,30.02,29.97,29.93,10,10,10,16,11,23,0.00,6,Rain,217
2013-11-16,55,44,33,54,40,28,100,80,65,30.06,29.93,29.73,10,10,5,21,11,31,0.00,4,Rain,173
2013-11-17,62,52,42,59,54,41,100,95,82,29.74,29.44,29.12,10,9,2,38,17,53,0.00,8,Rain,191
2013-11-18,44,38,33,43,30,23,93,72,61,30.10,29.75,29.36,10,10,7,32,23,46,0.00,8,Rain,273
2013-11-19,37,32,28,27,24,21,86,69,56,30.40,30.30,30.11,10,10,10,14,8,20,0.00,3,,11
2013-11-20,42,35,28,32,28,23,93,78,49,30.43,30.34,30.22,10,10,10,18,7,23,0.00,0,,138
2013-11-21,50,42,35,45,38,30,100,83,66,30.27,30.20,30.16,10,9,4,14,7,16,0.00,8,Rain,182
2013-11-22,44,35,26,45,34,23,100,91,75,30.36,30.23,30.11,10,7,2,24,7,29,0.00,5,Rain-Snow,297
2013-11-23,30,22,15,27,15,5,100,70,43,30.49,30.35,30.23,10,10,0,28,13,36,0.00,4,Snow,298
2013-11-24,24,19,14,16,11,9,86,68,50,30.56,30.49,30.33,10,10,10,16,11,21,0.00,4,,271
2013-11-25,32,26,21,30,15,3,100,63,43,30.32,30.11,29.97,10,9,1,29,17,39,0.00,5,Snow,218
2013-11-26,32,30,28,32,30,23,100,96,80,30.04,29.98,29.92,10,6,3,14,11,20,0.00,8,Snow,230
2013-11-27,28,22,17,23,13,9,86,69,47,30.16,30.03,29.96,10,10,7,21,12,28,0.00,3,Snow,323
2013-11-28,26,22,17,25,19,12,100,89,74,30.42,30.28,30.17,10,6,1,8,5,,0.00,7,Snow,187
2013-11-29,26,19,12,27,19,10,100,98,86,30.65,30.57,30.42,10,5,0,9,1,,0.00,5,Fog,145
2013-11-30,42,34,26,30,26,23,86,73,57,30.52,30.24,30.04,10,10,10,18,9,22,0.00,3,,186